Time;durP1;ratioP1;P1;durP2;ratioP2;P2;SDS_P1;SDS_P2;PMS_P1;PMS_P2;Temp;Humidity;BMP_temperature;BMP_pressure;BME280_temperature;BME280_humidity;BME280_pressure;Samples;Min_cycle;Max_cycle;Signal;HPM_P1;HPM_P2
2021/12/04 00:01:11;;;;;;;34.53;11.05;;;5.30;99.90;;;;;;5037865;28;20124;-90
2021/12/04 00:03:38;;;;;;;30.75;10.07;;;5.30;99.90;;;;;;5041921;28;20021;-89
2021/12/04 00:06:12;;;;;;;26.58;10.20;;;5.20;99.90;;;;;;5037432;28;20090;-89
2021/12/04 00:08:37;;;;;;;20.67;8.48;;;5.20;99.90;;;;;;5038285;28;20025;-90
2021/12/04 00:11:04;;;;;;;21.08;8.27;;;5.20;99.90;;;;;;5037231;28;20028;-90
2021/12/04 00:13:30;;;;;;;32.63;10.63;;;5.20;99.90;;;;;;5036463;28;20423;-90
2021/12/04 00:15:55;;;;;;;24.17;9.20;;;5.20;99.90;;;;;;5036823;28;20044;-91
2021/12/04 00:18:22;;;;;;;24.92;9.02;;;5.20;99.90;;;;;;5036470;28;20025;-91
2021/12/04 00:20:48;;;;;;;33.75;10.15;;;5.20;99.90;;;;;;5036630;28;20028;-90
2021/12/04 00:23:14;;;;;;;26.40;8.82;;;5.20;99.90;;;;;;5054686;28;20021;-90
2021/12/04 00:25:39;;;;;;;34.78;9.90;;;5.20;99.90;;;;;;5036892;28;20028;-90
2021/12/04 00:28:06;;;;;;;14.15;7.60;;;5.20;99.90;;;;;;5036853;28;20075;-89
2021/12/04 00:30:32;;;;;;;29.30;10.43;;;5.20;99.90;;;;;;5036413;28;20048;-90
2021/12/04 00:33:14;;;;;;;24.98;9.32;;;5.20;99.90;;;;;;5036554;28;20052;-90
2021/12/04 00:36:04;;;;;;;28.33;10.40;;;5.20;99.90;;;;;;5036248;28;20268;-90
2021/12/04 00:49:11;;;;;;;19.88;7.47;;;5.20;99.90;;;;;;5053824;28;20056;-89
2021/12/04 00:51:45;;;;;;;28.20;8.98;;;5.20;99.90;;;;;;5035771;28;20033;-92
2021/12/04 00:54:12;;;;;;;26.75;9.25;;;5.20;99.90;;;;;;5036119;28;20123;-90
2021/12/04 00:56:42;;;;;;;23.90;7.75;;;5.20;99.90;;;;;;5035954;28;20075;-91
2021/12/04 00:59:08;;;;;;;24.30;7.05;;;5.20;99.90;;;;;;5036055;28;20380;-91
2021/12/04 01:01:38;;;;;;;20.48;5.80;;;5.30;99.90;;;;;;5053521;28;20047;-91
2021/12/04 01:04:04;;;;;;;23.55;5.85;;;5.30;99.90;;;;;;5035817;28;20482;-90
2021/12/04 01:06:30;;;;;;;19.98;4.95;;;5.30;99.90;;;;;;5036018;28;20033;-90
2021/12/04 01:08:56;;;;;;;23.42;5.57;;;5.30;99.90;;;;;;5036116;28;20390;-90
2021/12/04 01:11:21;;;;;;;17.50;5.35;;;5.30;99.90;;;;;;5035937;28;20025;-90
2021/12/04 01:13:47;;;;;;;23.42;5.22;;;5.40;99.90;;;;;;5035623;28;20510;-90
2021/12/04 01:16:14;;;;;;;15.55;4.78;;;5.30;99.90;;;;;;5054872;28;20068;-91
2021/12/04 01:18:40;;;;;;;15.07;5.60;;;5.30;99.90;;;;;;5059995;28;20032;-91
2021/12/04 01:21:06;;;;;;;19.63;5.22;;;5.40;99.90;;;;;;5056465;28;20025;-91
2021/12/04 01:23:32;;;;;;;17.23;4.60;;;5.40;99.90;;;;;;5054984;28;20029;-90
2021/12/04 01:25:58;;;;;;;17.08;4.85;;;5.40;99.90;;;;;;5055376;28;20040;-91
2021/12/04 01:28:23;;;;;;;13.82;4.35;;;5.40;99.90;;;;;;5055721;28;20112;-91
2021/12/04 01:30:49;;;;;;;25.80;4.90;;;5.40;99.90;;;;;;5055544;28;20036;-90
2021/12/04 01:33:15;;;;;;;11.23;4.72;;;5.40;99.90;;;;;;5055827;28;20539;-89
2021/12/04 01:35:40;;;;;;;13.25;5.30;;;5.40;99.90;;;;;;5055123;28;20031;-90
2021/12/04 01:38:06;;;;;;;19.42;5.82;;;5.40;99.90;;;;;;5055571;28;20075;-90
2021/12/04 01:40:32;;;;;;;23.65;6.93;;;5.30;99.90;;;;;;5055486;28;20024;-91
2021/12/04 01:42:58;;;;;;;22.77;6.20;;;5.40;99.90;;;;;;5055098;28;20035;-90
2021/12/04 01:45:23;;;;;;;17.77;5.70;;;5.30;99.90;;;;;;5054775;28;20115;-90
2021/12/04 01:47:49;;;;;;;13.30;4.78;;;5.40;99.90;;;;;;5055378;28;20412;-90
2021/12/04 01:50:15;;;;;;;15.82;4.55;;;5.30;99.90;;;;;;5073441;28;20036;-91
2021/12/04 01:52:41;;;;;;;20.25;6.88;;;5.30;99.90;;;;;;5054982;28;20174;-91
2021/12/04 01:55:08;;;;;;;12.40;5.15;;;5.30;99.90;;;;;;5054922;28;20025;-90
2021/12/04 01:57:34;;;;;;;13.55;5.28;;;5.30;99.90;;;;;;5058540;28;20387;-90
2021/12/04 02:00:00;;;;;;;16.98;4.75;;;5.30;99.90;;;;;;5058884;28;20043;-91
2021/12/04 02:02:25;;;;;;;27.77;7.72;;;5.30;99.90;;;;;;5058613;28;20090;-91
2021/12/04 02:04:51;;;;;;;22.85;7.85;;;5.30;99.90;;;;;;5043289;28;20091;-91
2021/12/04 02:07:19;;;;;;;17.83;6.70;;;5.30;99.90;;;;;;5038664;28;20119;-90
2021/12/04 02:09:45;;;;;;;28.70;8.73;;;5.30;99.90;;;;;;5038481;28;20017;-90
2021/12/04 02:12:11;;;;;;;19.15;7.30;;;5.30;99.90;;;;;;5038203;28;20056;-90
2021/12/04 02:14:38;;;;;;;21.52;7.60;;;5.30;99.90;;;;;;5038833;28;20041;-90
2021/12/04 02:17:06;;;;;;;25.40;8.48;;;5.30;99.90;;;;;;5038626;28;20116;-91
2021/12/04 02:19:32;;;;;;;22.42;8.55;;;5.30;99.90;;;;;;5038478;28;20029;-90
2021/12/04 02:21:58;;;;;;;22.23;7.63;;;5.30;99.90;;;;;;5038677;28;20121;-91
2021/12/04 02:24:23;;;;;;;23.75;9.45;;;5.30;99.90;;;;;;5038553;28;20123;-91
2021/12/04 02:26:50;;;;;;;27.23;9.57;;;5.30;99.90;;;;;;5038716;28;20032;-91
2021/12/04 02:29:18;;;;;;;22.08;8.40;;;5.40;99.90;;;;;;5038348;28;20021;-91
2021/12/04 02:31:51;;;;;;;23.55;8.63;;;5.40;99.90;;;;;;5038445;28;20545;-91
2021/12/04 02:34:27;;;;;;;36.22;11.05;;;5.40;99.90;;;;;;5038221;28;20038;-91
2021/12/04 02:36:54;;;;;;;25.33;9.75;;;5.40;99.90;;;;;;5037899;28;20048;-90
2021/12/04 02:39:27;;;;;;;29.15;9.52;;;5.40;99.90;;;;;;5038033;28;20033;-91
2021/12/04 02:41:54;;;;;;;27.65;10.52;;;5.40;99.90;;;;;;5037867;28;20029;-92
2021/12/04 02:44:20;;;;;;;31.27;9.85;;;5.40;99.90;;;;;;5038420;28;20071;-91
2021/12/04 02:46:46;;;;;;;28.90;8.63;;;5.40;99.90;;;;;;5038199;28;20482;-92
2021/12/04 02:49:14;;;;;;;27.50;9.73;;;5.40;99.90;;;;;;5038606;28;20039;-91
2021/12/04 02:51:41;;;;;;;16.70;6.68;;;5.40;99.90;;;;;;5038218;28;20028;-92
2021/12/04 02:54:10;;;;;;;22.92;9.25;;;5.40;99.90;;;;;;5037792;28;20110;-91
2021/12/04 02:56:35;;;;;;;19.33;7.10;;;5.40;99.90;;;;;;5037705;28;20083;-91
2021/12/04 02:59:02;;;;;;;20.08;7.03;;;5.40;99.90;;;;;;5038252;28;20029;-91
2021/12/04 03:01:29;;;;;;;16.92;5.97;;;5.40;99.90;;;;;;5037880;28;20043;-91
2021/12/04 03:04:26;;;;;;;20.75;5.68;;;5.50;99.90;;;;;;5037544;28;20032;-91
2021/12/04 03:06:53;;;;;;;28.80;6.93;;;5.60;99.90;;;;;;5022169;28;20036;-91
2021/12/04 03:09:19;;;;;;;16.13;7.78;;;5.70;99.90;;;;;;5039453;28;20048;-90
2021/12/04 03:11:45;;;;;;;18.45;6.65;;;5.60;99.90;;;;;;5042356;28;20378;-91
2021/12/04 03:14:11;;;;;;;32.17;8.85;;;5.60;99.90;;;;;;5037319;28;20041;-91
2021/12/04 03:16:39;;;;;;;15.57;6.38;;;5.70;99.90;;;;;;5037543;28;20029;-91
2021/12/04 03:19:06;;;;;;;20.83;8.98;;;5.70;99.90;;;;;;5037294;28;20521;-91
2021/12/04 03:21:34;;;;;;;15.25;6.70;;;5.80;99.90;;;;;;5037225;28;20115;-91
2021/12/04 03:24:03;;;;;;;17.25;7.07;;;5.80;99.90;;;;;;5037132;28;20021;-92
2021/12/04 03:26:29;;;;;;;19.25;6.70;;;5.80;99.90;;;;;;5037124;28;20028;-91
2021/12/04 03:28:57;;;;;;;12.48;5.80;;;5.70;99.90;;;;;;5036872;28;20028;-92
2021/12/04 03:42:09;;;;;;;12.07;3.50;;;5.80;99.90;;;;;;5055249;28;20036;-93
2021/12/04 03:44:34;;;;;;;7.38;2.38;;;5.80;99.90;;;;;;5037169;28;20033;-91
2021/12/04 03:47:01;;;;;;;9.20;2.10;;;5.80;99.90;;;;;;5054762;28;20510;-92
2021/12/04 03:49:27;;;;;;;7.10;2.00;;;5.80;99.90;;;;;;5036712;28;20372;-92
2021/12/04 03:51:55;;;;;;;1.27;0.93;;;5.80;99.90;;;;;;5036778;28;20032;-91
2021/12/04 03:54:21;;;;;;;2.60;1.70;;;5.80;99.90;;;;;;5036756;28;20680;-92
2021/12/04 03:56:47;;;;;;;4.90;1.38;;;5.80;99.90;;;;;;5036721;28;20020;-92
2021/12/04 03:59:13;;;;;;;3.15;1.30;;;5.70;99.90;;;;;;5036948;28;20394;-92
2021/12/04 04:01:38;;;;;;;2.67;0.90;;;5.70;99.90;;;;;;5036448;28;20048;-92
2021/12/04 04:04:04;;;;;;;3.88;1.08;;;5.60;99.90;;;;;;5037025;28;20058;-94
2021/12/04 04:06:30;;;;;;;1.90;0.70;;;5.50;99.90;;;;;;5036843;28;20025;-92
2021/12/04 04:08:56;;;;;;;3.13;1.05;;;5.40;99.90;;;;;;5036833;28;20063;-92
2021/12/04 04:11:21;;;;;;;0.73;0.60;;;5.40;99.90;;;;;;5036501;28;20028;-92
2021/12/04 04:13:47;;;;;;;1.13;0.60;;;5.30;99.90;;;;;;5036234;28;20046;-91
2021/12/04 04:16:13;;;;;;;2.30;0.50;;;5.20;99.90;;;;;;5035976;28;20429;-92
2021/12/04 04:18:39;;;;;;;1.23;0.45;;;5.20;99.90;;;;;;5035929;28;20029;-91
2021/12/04 04:21:05;;;;;;;3.90;0.93;;;5.10;99.90;;;;;;5037110;28;20454;-93
2021/12/04 04:23:31;;;;;;;1.20;0.47;;;5.10;99.90;;;;;;5036419;28;20090;-92
2021/12/04 04:25:57;;;;;;;1.67;0.50;;;5.00;99.90;;;;;;5036761;28;20423;-91
2021/12/04 04:28:23;;;;;;;0.70;0.22;;;4.90;99.90;;;;;;5037187;28;20033;-90
2021/12/04 04:30:49;;;;;;;0.63;0.30;;;4.90;99.90;;;;;;5037691;28;20494;-91
2021/12/04 04:33:15;;;;;;;1.20;0.55;;;4.80;99.90;;;;;;5039058;28;20394;-91
2021/12/04 04:35:45;;;;;;;1.88;0.30;;;4.80;99.90;;;;;;5037199;28;20021;-92
2021/12/04 05:11:06;;;;;;;4.25;0.75;;;4.40;99.90;;;;;;4973339;28;20476;-90
2021/12/04 05:13:32;;;;;;;1.52;0.47;;;4.40;99.90;;;;;;4973141;28;20066;-92
2021/12/04 05:16:00;;;;;;;3.28;0.55;;;4.40;99.90;;;;;;4972496;28;20113;-92
2021/12/04 05:21:04;;;;;;;3.63;1.25;;;4.30;99.90;;;;;;4973349;28;20085;-91
2021/12/04 05:23:51;;;;;;;0.60;0.30;;;4.30;99.90;;;;;;4972597;28;20031;-90
2021/12/04 05:26:20;;;;;;;5.82;1.42;;;4.30;99.90;;;;;;4971968;28;20037;-90
2021/12/04 05:28:46;;;;;;;2.78;0.80;;;4.20;99.90;;;;;;4972775;28;20125;-90
2021/12/04 05:31:13;;;;;;;6.50;0.68;;;4.20;99.90;;;;;;5013879;28;20033;-90
2021/12/04 05:33:39;;;;;;;6.60;0.50;;;4.20;99.90;;;;;;5039528;28;20086;-92
2021/12/04 05:36:06;;;;;;;3.55;1.30;;;4.20;99.90;;;;;;5039048;28;20028;-92
2021/12/04 05:38:32;;;;;;;4.65;0.80;;;4.20;99.90;;;;;;5039465;28;20033;-92
2021/12/04 05:40:59;;;;;;;9.57;1.42;;;4.20;99.90;;;;;;5038802;28;20057;-90
2021/12/04 05:43:26;;;;;;;6.22;1.00;;;4.20;99.90;;;;;;5039284;28;20482;-91
2021/12/04 05:46:13;;;;;;;6.93;1.13;;;4.20;99.90;;;;;;5039161;28;20031;-92
2021/12/04 05:49:04;;;;;;;7.68;1.88;;;4.30;99.90;;;;;;5039166;28;20462;-91
2021/12/04 05:54:04;;;;;;;9.32;1.40;;;4.30;99.90;;;;;;5056945;28;20037;-92
2021/12/04 05:56:32;;;;;;;7.38;1.65;;;4.30;99.90;;;;;;5039291;28;20043;-90
2021/12/04 05:58:59;;;;;;;16.02;2.78;;;4.30;99.90;;;;;;5038951;28;20104;-92
2021/12/04 06:01:25;;;;;;;12.82;2.90;;;4.40;99.90;;;;;;5038612;28;20132;-92
2021/12/04 06:03:51;;;;;;;10.35;2.20;;;4.40;99.90;;;;;;5039461;28;20486;-92
2021/12/04 06:06:17;;;;;;;16.75;2.55;;;4.50;99.90;;;;;;5038751;28;20051;-90
2021/12/04 06:08:43;;;;;;;22.77;2.75;;;4.50;99.90;;;;;;5038618;28;20104;-91
2021/12/04 06:11:09;;;;;;;8.45;1.98;;;4.50;99.90;;;;;;5038515;28;20056;-91
2021/12/04 06:13:35;;;;;;;15.95;3.20;;;4.50;99.90;;;;;;5038881;28;20033;-90
2021/12/04 06:16:01;;;;;;;5.72;1.98;;;4.50;99.90;;;;;;5038568;28;20132;-90
2021/12/04 06:18:27;;;;;;;18.27;2.58;;;4.50;99.90;;;;;;5038610;28;20032;-90
2021/12/04 06:23:37;;;;;;;11.20;2.70;;;4.50;99.90;;;;;;5056788;28;20091;-91
2021/12/04 06:26:07;;;;;;;23.55;3.53;;;4.50;99.90;;;;;;5038206;28;20021;-90
2021/12/04 06:28:34;;;;;;;15.90;2.78;;;4.50;99.90;;;;;;5038379;28;20060;-91
2021/12/04 06:31:00;;;;;;;24.42;2.97;;;4.50;99.90;;;;;;5038096;28;20037;-90
2021/12/04 06:33:26;;;;;;;20.30;2.97;;;4.50;99.90;;;;;;5038209;28;20041;-90
2021/12/04 06:35:52;;;;;;;16.85;3.00;;;4.50;99.90;;;;;;5038136;28;20021;-90
2021/12/04 06:38:19;;;;;;;5.68;1.25;;;4.50;99.90;;;;;;5038012;28;20067;-91
2021/12/04 06:40:46;;;;;;;12.63;2.63;;;4.50;99.90;;;;;;5038013;28;20028;-91
2021/12/04 06:43:13;;;;;;;16.48;2.35;;;4.50;99.90;;;;;;5038103;28;20194;-91
2021/12/04 06:45:45;;;;;;;13.20;1.83;;;4.50;99.90;;;;;;5038090;28;20070;-91
2021/12/04 06:48:15;;;;;;;10.35;2.33;;;4.50;99.90;;;;;;5038303;28;20029;-91
2021/12/04 06:53:44;;;;;;;15.75;1.80;;;4.40;99.90;;;;;;5025016;28;20064;-92
2021/12/04 06:56:12;;;;;;;14.93;1.75;;;4.40;99.90;;;;;;5043181;28;20016;-90
2021/12/04 06:58:38;;;;;;;10.95;1.65;;;4.40;99.90;;;;;;5046020;28;20119;-91
2021/12/04 07:01:05;;;;;;;26.17;3.00;;;4.40;99.90;;;;;;5040789;28;20083;-92
2021/12/04 07:03:31;;;;;;;21.65;1.75;;;4.30;99.90;;;;;;5038076;28;20040;-92
2021/12/04 07:05:57;;;;;;;15.02;3.58;;;4.30;99.90;;;;;;5038012;28;20027;-92
2021/12/04 07:08:22;;;;;;;21.48;2.83;;;4.30;99.90;;;;;;5038008;28;20078;-91
2021/12/04 07:10:48;;;;;;;16.92;1.73;;;4.20;99.90;;;;;;5037577;28;20025;-92
2021/12/04 07:13:14;;;;;;;13.05;2.05;;;4.20;99.90;;;;;;5037365;28;20037;-91
2021/12/04 07:15:44;;;;;;;14.73;1.83;;;4.20;99.90;;;;;;5037232;28;20026;-91
2021/12/04 07:18:11;;;;;;;13.55;3.17;;;4.20;99.90;;;;;;5037724;28;20036;-91
2021/12/04 07:20:36;;;;;;;10.55;2.28;;;4.20;99.90;;;;;;5037629;28;20118;-91
2021/12/04 07:23:02;;;;;;;9.95;1.73;;;4.20;99.90;;;;;;5037133;28;20028;-90
2021/12/04 07:25:28;;;;;;;13.65;1.83;;;4.20;99.90;;;;;;5038201;28;20025;-91
2021/12/04 07:27:55;;;;;;;9.65;1.48;;;4.20;99.90;;;;;;5038913;28;20029;-91
2021/12/04 07:30:23;;;;;;;13.45;1.55;;;4.20;99.90;;;;;;5062801;28;20025;-92
2021/12/04 07:32:49;;;;;;;15.30;1.80;;;4.20;99.90;;;;;;5042451;28;20033;-90
2021/12/04 07:35:15;;;;;;;6.80;1.30;;;4.20;99.90;;;;;;5042061;28;20025;-91
2021/12/04 07:37:44;;;;;;;13.38;1.80;;;4.20;99.90;;;;;;5040512;28;20025;-89
2021/12/04 07:40:11;;;;;;;6.68;1.40;;;4.20;99.90;;;;;;5034828;28;20036;-90
2021/12/04 07:42:37;;;;;;;9.52;1.70;;;4.20;99.90;;;;;;5035807;28;20033;-90
2021/12/04 07:45:05;;;;;;;14.85;2.35;;;4.20;99.90;;;;;;5036457;28;20108;-90
2021/12/04 07:47:30;;;;;;;10.20;1.77;;;4.20;99.90;;;;;;5036868;28;20021;-91
2021/12/04 07:49:56;;;;;;;17.30;2.20;;;4.20;99.90;;;;;;5037140;28;20083;-92
2021/12/04 07:52:22;;;;;;;13.82;2.08;;;4.10;99.90;;;;;;5036508;28;20036;-91
2021/12/04 07:54:49;;;;;;;18.38;1.67;;;4.20;99.90;;;;;;5036059;28;20021;-91
2021/12/04 07:57:16;;;;;;;13.20;1.35;;;4.10;99.90;;;;;;5036423;28;20025;-91
2021/12/04 07:59:42;;;;;;;15.55;2.17;;;4.10;99.90;;;;;;5036618;28;20021;-89
2021/12/04 08:02:08;;;;;;;17.15;2.47;;;4.10;99.90;;;;;;5036137;28;20061;-90
2021/12/04 08:04:33;;;;;;;10.95;1.95;;;4.10;99.90;;;;;;5038586;28;20054;-90
2021/12/04 08:07:02;;;;;;;8.80;2.28;;;4.10;99.90;;;;;;5040519;28;20021;-90
2021/12/04 08:09:28;;;;;;;20.45;2.53;;;4.10;99.90;;;;;;5045490;28;20445;-91
2021/12/04 08:11:53;;;;;;;11.15;2.60;;;4.00;99.90;;;;;;5038346;28;20036;-92
2021/12/04 08:14:19;;;;;;;9.05;2.83;;;4.10;99.90;;;;;;5036700;28;20386;-91
2021/12/04 08:16:47;;;;;;;13.68;3.28;;;4.00;99.90;;;;;;5038086;28;20029;-94
2021/12/04 08:19:13;;;;;;;11.15;2.90;;;4.00;99.90;;;;;;5038980;28;20115;-93
2021/12/04 08:21:39;;;;;;;9.02;3.80;;;4.00;99.90;;;;;;5055551;28;20039;-95
2021/12/04 08:24:06;;;;;;;14.23;2.90;;;4.00;99.90;;;;;;5036966;28;20033;-93
2021/12/04 08:26:33;;;;;;;9.75;2.30;;;4.00;99.90;;;;;;5037085;28;20091;-91
2021/12/04 08:28:59;;;;;;;8.27;1.85;;;3.90;99.90;;;;;;5037163;28;20021;-91
2021/12/04 08:31:30;;;;;;;7.03;1.95;;;3.90;99.90;;;;;;5037327;28;20437;-92
2021/12/04 08:33:56;;;;;;;6.63;1.73;;;3.90;99.90;;;;;;5037144;28;20067;-93
2021/12/04 08:36:23;;;;;;;6.45;1.70;;;3.90;99.90;;;;;;5036018;28;20029;-92
2021/12/04 08:38:49;;;;;;;9.30;2.20;;;4.00;99.90;;;;;;5037290;28;20028;-92
2021/12/04 08:41:19;;;;;;;9.93;2.83;;;4.00;99.90;;;;;;5036921;28;20363;-92
2021/12/04 08:43:53;;;;;;;12.50;1.87;;;4.00;99.90;;;;;;5037300;28;20467;-93
2021/12/04 08:46:25;;;;;;;8.25;1.88;;;4.00;99.90;;;;;;5055252;28;20271;-93
2021/12/04 08:48:54;;;;;;;4.00;1.67;;;4.10;99.90;;;;;;5041590;28;20252;-93
2021/12/04 08:51:27;;;;;;;12.00;2.55;;;4.00;99.90;;;;;;5048778;28;20043;-94
2021/12/04 08:53:53;;;;;;;15.88;3.50;;;4.00;99.90;;;;;;5049236;28;20033;-94
2021/12/04 08:56:19;;;;;;;9.70;2.63;;;4.00;99.90;;;;;;5047316;28;20021;-95
2021/12/04 08:58:45;;;;;;;8.32;1.90;;;4.00;99.90;;;;;;5037586;28;20035;-94
2021/12/04 09:01:16;;;;;;;10.13;2.33;;;4.10;99.90;;;;;;5042211;28;20025;-93
2021/12/04 09:03:46;;;;;;;6.70;1.80;;;4.00;99.90;;;;;;5040169;28;20036;-94
2021/12/04 09:06:12;;;;;;;8.48;2.08;;;4.10;99.90;;;;;;5045854;28;20074;-96
2021/12/04 09:08:39;;;;;;;22.05;5.65;;;4.10;99.90;;;;;;5044258;28;20037;-93
2021/12/04 09:11:12;;;;;;;17.23;5.30;;;4.20;99.90;;;;;;5039599;28;20024;-96
2021/12/04 09:13:39;;;;;;;8.93;3.70;;;4.20;99.90;;;;;;5041826;28;20037;-94
2021/12/04 09:16:05;;;;;;;13.63;4.15;;;4.20;99.90;;;;;;5040662;28;20350;-95
2021/12/04 09:18:31;;;;;;;10.18;4.30;;;4.20;99.90;;;;;;5041419;28;20032;-95
2021/12/04 09:20:57;;;;;;;19.23;8.38;;;4.20;99.90;;;;;;5055144;28;20047;-96
2021/12/04 09:23:31;;;;;;;12.90;4.40;;;4.20;99.90;;;;;;5040895;28;20035;-95
2021/12/04 09:26:01;;;;;;;14.07;4.50;;;4.30;99.90;;;;;;5037012;28;20112;-94
2021/12/04 09:28:39;;;;;;;11.67;5.17;;;4.30;99.90;;;;;;5040404;28;20394;-95
2021/12/04 09:34:18;;;;;;;18.08;6.30;;;4.30;99.90;;;;;;5055277;28;20079;-94
2021/12/04 10:20:51;;;;;;;8.50;2.92;;;4.50;99.90;;;;;;5045364;28;20052;-94
2021/12/04 10:34:09;;;;;;;6.43;1.83;;;4.60;99.90;;;;;;4995293;28;20102;-95
2021/12/04 10:36:39;;;;;;;8.40;2.35;;;4.50;99.90;;;;;;4987440;28;20029;-93
2021/12/04 10:39:08;;;;;;;13.75;1.98;;;4.50;99.90;;;;;;4986225;28;20026;-95
2021/12/04 10:41:39;;;;;;;9.48;3.55;;;4.50;99.90;;;;;;4984673;28;20026;-95
2021/12/04 10:44:22;;;;;;;15.73;6.28;;;4.50;99.90;;;;;;4979778;28;20041;-94
2021/12/04 10:46:55;;;;;;;11.70;4.35;;;4.50;99.90;;;;;;4978780;28;20034;-95
2021/12/04 10:50:02;;;;;;;10.18;4.78;;;4.50;99.90;;;;;;4979495;28;20073;-95
2021/12/04 10:53:06;;;;;;;9.48;5.45;;;4.50;99.90;;;;;;4995492;28;20046;-95
2021/12/04 11:01:05;;;;;;;12.25;4.80;;;4.50;99.90;;;;;;4979338;28;20029;-93
2021/12/04 11:03:37;;;;;;;8.20;3.50;;;4.60;99.90;;;;;;4993047;28;20133;-93
2021/12/04 11:26:17;;;;;;;28.92;13.95;;;5.00;99.90;;;;;;5055350;28;20504;-94
2021/12/04 11:37:13;;;;;;;10.02;2.88;;;4.90;99.90;;;;;;5055627;28;20493;-93
2021/12/04 11:44:57;;;;;;;12.77;2.20;;;5.00;99.90;;;;;;5055677;28;20029;-94
2021/12/04 11:47:23;;;;;;;2.38;1.10;;;5.00;99.90;;;;;;5036040;28;20021;-95
2021/12/04 11:49:49;;;;;;;7.60;2.10;;;5.10;99.90;;;;;;5038290;28;20501;-95
2021/12/04 11:52:19;;;;;;;9.45;1.98;;;5.20;99.90;;;;;;5035259;28;20025;-93
2021/12/04 11:55:00;;;;;;;6.32;1.60;;;5.30;99.90;;;;;;5036830;28;20029;-94
2021/12/04 11:57:45;;;;;;;11.90;2.58;;;5.40;99.90;;;;;;5053736;28;20025;-94
2021/12/04 12:00:28;;;;;;;12.57;2.45;;;5.40;99.90;;;;;;5036370;28;20037;-94
2021/12/04 12:03:19;;;;;;;11.45;1.80;;;5.40;99.90;;;;;;5038364;28;20060;-95
2021/12/04 12:06:01;;;;;;;10.52;1.98;;;5.40;99.90;;;;;;5034654;28;20449;-94
2021/12/04 12:08:42;;;;;;;11.20;2.03;;;5.50;99.90;;;;;;5035120;28;20044;-94
2021/12/04 12:11:25;;;;;;;14.80;2.90;;;5.50;99.90;;;;;;5035727;28;20027;-95
2021/12/04 12:14:01;;;;;;;15.35;2.53;;;5.50;99.90;;;;;;5033594;28;20566;-94
2021/12/04 12:16:36;;;;;;;9.38;1.95;;;5.40;99.90;;;;;;5037311;28;20024;-95
2021/12/04 12:19:08;;;;;;;12.52;2.70;;;5.30;99.90;;;;;;5040881;28;20029;-95
2021/12/04 12:22:01;;;;;;;9.70;1.98;;;5.30;99.90;;;;;;5037740;28;20478;-94
2021/12/04 12:25:10;;;;;;;11.02;3.75;;;5.30;99.90;;;;;;5034622;28;20025;-94
2021/12/04 12:31:48;;;;;;;14.63;2.63;;;5.20;99.90;;;;;;5065939;28;20029;-96
2021/12/04 12:36:12;;;;;;;14.48;2.25;;;5.20;99.90;;;;;;5057589;28;20531;-93
2021/12/04 12:38:58;;;;;;;8.55;2.55;;;5.10;99.90;;;;;;5036845;28;20030;-94
2021/12/04 12:41:42;;;;;;;6.85;2.20;;;5.10;99.90;;;;;;5059883;28;20097;-94
2021/12/04 12:44:22;;;;;;;20.67;2.78;;;5.10;99.90;;;;;;5035627;28;20079;-94
2021/12/04 12:47:02;;;;;;;14.57;2.67;;;5.20;99.90;;;;;;5039245;28;20509;-94
2021/12/04 12:49:45;;;;;;;7.45;1.80;;;5.20;99.90;;;;;;5033227;28;20268;-93
2021/12/04 12:52:18;;;;;;;9.73;1.42;;;5.20;99.90;;;;;;5037984;28;20025;-95
2021/12/04 12:55:00;;;;;;;15.30;2.38;;;5.20;99.90;;;;;;5038207;28;20486;-93
2021/12/04 12:57:35;;;;;;;10.07;1.80;;;5.10;99.90;;;;;;5036267;28;20029;-94
2021/12/04 13:12:05;;;;;;;8.32;1.60;;;4.90;99.90;;;;;;5059171;28;20044;-94
2021/12/04 13:14:41;;;;;;;11.20;1.50;;;4.90;99.90;;;;;;5047914;28;20033;-94
2021/12/04 13:17:16;;;;;;;6.20;1.40;;;4.90;99.90;;;;;;5040797;28;20025;-93
2021/12/04 13:19:47;;;;;;;3.90;0.85;;;4.80;99.90;;;;;;5058931;28;20032;-92
2021/12/04 13:22:20;;;;;;;7.10;1.20;;;4.80;99.90;;;;;;5036827;28;20083;-93
2021/12/04 13:24:48;;;;;;;2.40;0.93;;;4.70;99.90;;;;;;5038909;28;20021;-94
2021/12/04 13:29:46;;;;;;;2.47;0.75;;;4.60;99.90;;;;;;5059074;28;20047;-92
2021/12/04 13:32:17;;;;;;;3.90;1.20;;;4.60;99.90;;;;;;5053666;28;20013;-94
2021/12/04 13:34:46;;;;;;;3.13;0.70;;;4.60;99.90;;;;;;5054805;28;20044;-93
2021/12/04 14:16:59;;;;;;;3.42;0.80;;;4.50;99.90;;;;;;6057908;23;20069;-94
2021/12/04 14:25:07;;;;;;;2.13;0.55;;;4.50;99.90;;;;;;5037148;23;20095;-95
2021/12/04 14:27:38;;;;;;;2.42;0.85;;;4.50;99.90;;;;;;4972757;29;20039;-95
2021/12/04 14:30:10;;;;;;;3.05;0.80;;;4.50;99.90;;;;;;4971661;29;20043;-95
2021/12/04 14:32:40;;;;;;;4.18;1.05;;;4.50;99.90;;;;;;4965380;28;20473;-93
2021/12/04 14:35:19;;;;;;;7.70;1.00;;;4.50;99.90;;;;;;4956077;28;20043;-95
2021/12/04 14:37:48;;;;;;;5.43;1.02;;;4.60;99.90;;;;;;4970250;29;20042;-96
2021/12/04 14:40:21;;;;;;;4.93;1.00;;;4.50;99.90;;;;;;4968648;28;20060;-95
2021/12/04 14:42:56;;;;;;;4.80;1.10;;;4.60;99.90;;;;;;4971088;29;20059;-95
2021/12/04 14:45:33;;;;;;;11.80;2.05;;;4.60;99.90;;;;;;4967779;29;20090;-94
2021/12/04 14:48:29;;;;;;;7.20;1.17;;;4.60;99.90;;;;;;4963718;29;20047;-96
2021/12/04 14:51:20;;;;;;;8.48;1.33;;;4.60;99.90;;;;;;4962131;29;20079;-96
2021/12/04 14:53:58;;;;;;;3.03;0.75;;;4.60;99.90;;;;;;4951032;29;20086;-94
2021/12/04 14:56:28;;;;;;;7.88;1.80;;;4.70;99.90;;;;;;4953582;29;20694;-95
2021/12/04 14:58:54;;;;;;;11.35;2.25;;;4.70;99.90;;;;;;4956919;29;20028;-94
2021/12/04 15:01:29;;;;;;;15.57;2.10;;;4.70;99.90;;;;;;4954115;29;20118;-95
2021/12/04 15:04:00;;;;;;;16.65;1.92;;;4.80;99.90;;;;;;4956170;29;20480;-95
2021/12/04 15:06:30;;;;;;;9.80;1.20;;;4.80;99.90;;;;;;4961525;29;20027;-95
2021/12/04 15:09:14;;;;;;;6.55;1.10;;;4.80;99.90;;;;;;4958943;29;20039;-95
2021/12/04 15:11:47;;;;;;;10.63;1.95;;;4.80;99.90;;;;;;4966422;29;20031;-95
2021/12/04 15:14:30;;;;;;;11.13;1.50;;;4.80;99.90;;;;;;4970386;28;20050;-95
2021/12/04 15:17:15;;;;;;;7.47;1.13;;;4.80;99.90;;;;;;4964335;29;20020;-94
2021/12/04 15:19:59;;;;;;;4.93;1.17;;;4.80;99.90;;;;;;4955843;28;20024;-94
2021/12/04 15:22:58;;;;;;;3.90;0.73;;;4.80;99.90;;;;;;4961863;28;20040;-94
2021/12/04 15:25:34;;;;;;;2.45;0.80;;;4.80;99.90;;;;;;4966456;29;20071;-96
2021/12/04 15:28:47;;;;;;;11.40;1.95;;;4.80;99.90;;;;;;4968148;28;20035;-95
2021/12/04 15:31:22;;;;;;;6.45;1.27;;;4.70;99.90;;;;;;4964596;29;20027;-96
2021/12/04 15:33:51;;;;;;;4.40;1.17;;;4.70;99.90;;;;;;4961795;29;20094;-95
2021/12/04 15:36:34;;;;;;;4.05;1.02;;;4.70;99.90;;;;;;4959193;29;20091;-95
2021/12/04 15:39:10;;;;;;;7.72;1.52;;;4.70;99.90;;;;;;4967490;28;20011;-95
2021/12/04 15:42:09;;;;;;;4.82;1.25;;;4.70;99.90;;;;;;4964228;28;20048;-95
2021/12/04 15:55:51;;;;;;;4.60;0.73;;;4.60;99.90;;;;;;5717012;23;20103;-95
2021/12/04 15:58:20;;;;;;;6.43;1.48;;;4.60;99.90;;;;;;4982481;28;20031;-95
2021/12/04 16:00:53;;;;;;;2.30;0.47;;;4.60;99.90;;;;;;4982155;28;20015;-95
2021/12/04 16:08:31;;;;;;;1.30;0.70;;;4.40;99.90;;;;;;5064614;23;20055;-95
2021/12/04 16:11:08;;;;;;;1.35;0.60;;;4.40;99.90;;;;;;4965265;28;20034;-96
2021/12/04 16:13:38;;;;;;;0.80;0.60;;;4.30;99.90;;;;;;4975618;28;20035;-96
2021/12/04 16:16:29;;;;;;;1.15;0.63;;;4.40;99.90;;;;;;4980955;28;20032;-96
2021/12/04 16:19:00;;;;;;;0.95;0.70;;;4.30;99.90;;;;;;4975158;28;20035;-95
2021/12/04 16:21:26;;;;;;;1.70;0.73;;;4.30;99.90;;;;;;4973282;28;20054;-95
2021/12/04 16:23:54;;;;;;;1.60;0.40;;;4.30;99.90;;;;;;4974527;28;20027;-93
2021/12/04 16:26:28;;;;;;;0.98;0.50;;;4.30;99.90;;;;;;4980056;28;20035;-95
2021/12/04 16:29:12;;;;;;;0.52;0.40;;;4.30;99.90;;;;;;4978250;28;20054;-95
2021/12/04 16:32:29;;;;;;;2.83;0.60;;;4.40;99.90;;;;;;4976906;28;20053;-95
2021/12/04 16:37:55;;;;;;;0.40;0.40;;;4.40;99.90;;;;;;4960999;28;20020;-95
2021/12/04 16:40:28;;;;;;;1.75;0.52;;;4.40;99.90;;;;;;4959945;29;20027;-94
2021/12/04 16:43:28;;;;;;;4.80;0.77;;;4.40;99.90;;;;;;4960343;29;20034;-94
2021/12/04 17:18:02;;;;;;;6.68;0.90;;;4.60;99.90;;;;;;5744094;23;20205;-96
2021/12/04 17:20:28;;;;;;;2.65;0.90;;;4.60;99.90;;;;;;4908761;29;20036;-95
2021/12/04 17:22:55;;;;;;;6.00;1.17;;;4.60;99.90;;;;;;4914826;29;20109;-94
2021/12/04 17:33:10;;;;;;;2.83;1.20;;;4.50;99.90;;;;;;4891613;29;20089;-94
2021/12/04 17:35:39;;;;;;;2.05;1.10;;;4.50;99.90;;;;;;4869707;29;20285;-94
2021/12/04 17:38:07;;;;;;;5.20;1.20;;;4.50;99.90;;;;;;4867568;29;20025;-94
2021/12/04 17:40:34;;;;;;;3.25;0.80;;;4.40;99.90;;;;;;4867019;29;20029;-94
2021/12/04 17:43:02;;;;;;;4.63;0.70;;;4.40;99.90;;;;;;4862151;29;20363;-94
2021/12/04 17:45:28;;;;;;;0.93;0.70;;;4.40;99.90;;;;;;4873357;29;20370;-95
2021/12/04 17:47:55;;;;;;;0.85;0.50;;;4.40;99.90;;;;;;4882382;29;20041;-94
2021/12/04 17:50:25;;;;;;;4.32;1.10;;;4.40;99.90;;;;;;4877898;29;20108;-93
2021/12/04 17:52:56;;;;;;;3.25;1.10;;;4.30;99.90;;;;;;4859320;29;20086;-94
2021/12/04 17:55:27;;;;;;;2.58;0.82;;;4.30;99.90;;;;;;4872448;29;20101;-95